sensor_id;sensor_type;location;lat;lon;timestamp;temperature;humidity
11320;DHT22;5715;48.234;14.320;2022-07-29T00:00:37;19.00;99.90
11320;DHT22;5715;48.234;14.320;2022-07-29T00:03:25;19.00;99.90
11320;DHT22;5715;48.234;14.320;2022-07-29T00:06:13;18.90;99.90
11320;DHT22;5715;48.234;14.320;2022-07-29T00:09:02;18.80;99.90
11320;DHT22;5715;48.234;14.320;2022-07-29T00:11:50;18.80;99.90
11320;DHT22;5715;48.234;14.320;2022-07-29T00:14:37;18.70;99.90
11320;DHT22;5715;48.234;14.320;2022-07-29T00:17:25;18.70;99.90
11320;DHT22;5715;48.234;14.320;2022-07-29T00:20:13;18.60;99.90
11320;DHT22;5715;48.234;14.320;2022-07-29T00:23:01;18.50;99.90
11320;DHT22;5715;48.234;14.320;2022-07-29T00:25:48;18.50;99.90
11320;DHT22;5715;48.234;14.320;2022-07-29T00:28:36;18.50;99.90
11320;DHT22;5715;48.234;14.320;2022-07-29T00:31:23;18.40;99.90
11320;DHT22;5715;48.234;14.320;2022-07-29T00:34:11;18.40;99.90
11320;DHT22;5715;48.234;14.320;2022-07-29T00:37:18;18.30;99.90
11320;DHT22;5715;48.234;14.320;2022-07-29T00:40:06;18.30;99.90
11320;DHT22;5715;48.234;14.320;2022-07-29T00:42:54;18.30;99.90
11320;DHT22;5715;48.234;14.320;2022-07-29T00:45:42;18.30;99.90
11320;DHT22;5715;48.234;14.320;2022-07-29T00:48:30;18.30;99.90
11320;DHT22;5715;48.234;14.320;2022-07-29T00:51:18;18.30;99.90
11320;DHT22;5715;48.234;14.320;2022-07-29T00:54:05;18.20;99.90
11320;DHT22;5715;48.234;14.320;2022-07-29T00:56:55;18.20;99.90
11320;DHT22;5715;48.234;14.320;2022-07-29T00:59:45;18.20;99.90
11320;DHT22;5715;48.234;14.320;2022-07-29T01:02:33;18.10;99.90
11320;DHT22;5715;48.234;14.320;2022-07-29T01:05:23;18.00;99.90
11320;DHT22;5715;48.234;14.320;2022-07-29T01:08:34;17.90;99.90
11320;DHT22;5715;48.234;14.320;2022-07-29T01:11:22;17.90;99.90
11320;DHT22;5715;48.234;14.320;2022-07-29T01:14:10;17.90;99.90
11320;DHT22;5715;48.234;14.320;2022-07-29T01:17:06;17.90;99.90
11320;DHT22;5715;48.234;14.320;2022-07-29T01:20:17;17.90;99.90
11320;DHT22;5715;48.234;14.320;2022-07-29T01:23:48;18.00;99.90
11320;DHT22;5715;48.234;14.320;2022-07-29T01:29:41;18.00;99.90
11320;DHT22;5715;48.234;14.320;2022-07-29T01:32:36;18.10;99.90
11320;DHT22;5715;48.234;14.320;2022-07-29T01:35:30;18.20;99.90
11320;DHT22;5715;48.234;14.320;2022-07-29T01:38:25;18.30;99.90
11320;DHT22;5715;48.234;14.320;2022-07-29T01:41:17;18.20;99.90
11320;DHT22;5715;48.234;14.320;2022-07-29T01:44:34;18.20;99.90
11320;DHT22;5715;48.234;14.320;2022-07-29T01:47:26;18.30;99.90
11320;DHT22;5715;48.234;14.320;2022-07-29T01:50:30;18.40;99.90
11320;DHT22;5715;48.234;14.320;2022-07-29T01:53:31;18.40;99.90
11320;DHT22;5715;48.234;14.320;2022-07-29T01:56:24;18.40;99.90
11320;DHT22;5715;48.234;14.320;2022-07-29T01:59:18;18.50;99.90
11320;DHT22;5715;48.234;14.320;2022-07-29T02:02:08;18.60;99.90
11320;DHT22;5715;48.234;14.320;2022-07-29T02:05:00;18.60;99.90
11320;DHT22;5715;48.234;14.320;2022-07-29T02:07:51;18.60;99.90
11320;DHT22;5715;48.234;14.320;2022-07-29T02:10:42;18.60;99.90
11320;DHT22;5715;48.234;14.320;2022-07-29T02:13:34;18.50;99.90
11320;DHT22;5715;48.234;14.320;2022-07-29T02:16:25;18.40;99.90
11320;DHT22;5715;48.234;14.320;2022-07-29T02:19:18;18.30;99.90
11320;DHT22;5715;48.234;14.320;2022-07-29T02:22:08;18.30;99.90
11320;DHT22;5715;48.234;14.320;2022-07-29T02:24:58;18.30;99.90
11320;DHT22;5715;48.234;14.320;2022-07-29T02:27:50;18.40;99.90
11320;DHT22;5715;48.234;14.320;2022-07-29T02:30:40;18.30;99.90
11320;DHT22;5715;48.234;14.320;2022-07-29T02:33:30;18.30;99.90
11320;DHT22;5715;48.234;14.320;2022-07-29T02:36:21;18.40;99.90
11320;DHT22;5715;48.234;14.320;2022-07-29T02:39:12;18.50;99.90
11320;DHT22;5715;48.234;14.320;2022-07-29T02:42:05;18.60;99.90
11320;DHT22;5715;48.234;14.320;2022-07-29T02:44:55;18.60;99.90
11320;DHT22;5715;48.234;14.320;2022-07-29T02:47:48;18.70;99.90
11320;DHT22;5715;48.234;14.320;2022-07-29T02:50:44;18.70;99.90
11320;DHT22;5715;48.234;14.320;2022-07-29T02:53:38;18.70;99.90
11320;DHT22;5715;48.234;14.320;2022-07-29T02:56:33;18.70;99.90
11320;DHT22;5715;48.234;14.320;2022-07-29T02:59:26;18.60;99.90
11320;DHT22;5715;48.234;14.320;2022-07-29T03:02:18;18.50;99.90
11320;DHT22;5715;48.234;14.320;2022-07-29T03:05:11;18.50;99.90
11320;DHT22;5715;48.234;14.320;2022-07-29T03:08:06;18.40;99.90
11320;DHT22;5715;48.234;14.320;2022-07-29T03:10:56;18.40;99.90
11320;DHT22;5715;48.234;14.320;2022-07-29T03:13:45;18.50;99.90
11320;DHT22;5715;48.234;14.320;2022-07-29T03:16:33;18.50;99.90
11320;DHT22;5715;48.234;14.320;2022-07-29T03:19:27;18.60;99.90
11320;DHT22;5715;48.234;14.320;2022-07-29T03:22:15;18.60;99.90
11320;DHT22;5715;48.234;14.320;2022-07-29T03:25:12;18.50;99.90
11320;DHT22;5715;48.234;14.320;2022-07-29T03:28:01;18.60;99.90
11320;DHT22;5715;48.234;14.320;2022-07-29T03:30:49;18.60;99.90
11320;DHT22;5715;48.234;14.320;2022-07-29T03:33:37;18.70;99.90
11320;DHT22;5715;48.234;14.320;2022-07-29T03:36:25;18.70;99.90
11320;DHT22;5715;48.234;14.320;2022-07-29T03:39:17;18.70;99.90
11320;DHT22;5715;48.234;14.320;2022-07-29T03:42:12;18.70;99.90
11320;DHT22;5715;48.234;14.320;2022-07-29T03:45:06;18.70;99.90
11320;DHT22;5715;48.234;14.320;2022-07-29T03:48:01;18.70;99.90
11320;DHT22;5715;48.234;14.320;2022-07-29T03:50:53;18.80;99.90
11320;DHT22;5715;48.234;14.320;2022-07-29T03:53:40;18.80;99.90
11320;DHT22;5715;48.234;14.320;2022-07-29T03:56:29;18.80;99.90
11320;DHT22;5715;48.234;14.320;2022-07-29T03:59:20;18.80;99.90
11320;DHT22;5715;48.234;14.320;2022-07-29T04:02:11;18.80;99.90
11320;DHT22;5715;48.234;14.320;2022-07-29T04:05:02;18.70;99.90
11320;DHT22;5715;48.234;14.320;2022-07-29T04:07:50;18.70;99.90
11320;DHT22;5715;48.234;14.320;2022-07-29T04:10:38;18.70;99.90
11320;DHT22;5715;48.234;14.320;2022-07-29T04:13:26;18.80;99.90
11320;DHT22;5715;48.234;14.320;2022-07-29T04:16:13;18.80;99.90
11320;DHT22;5715;48.234;14.320;2022-07-29T04:19:01;18.90;99.90
11320;DHT22;5715;48.234;14.320;2022-07-29T04:21:49;19.00;99.90
11320;DHT22;5715;48.234;14.320;2022-07-29T04:24:37;19.00;99.90
11320;DHT22;5715;48.234;14.320;2022-07-29T04:27:30;19.20;99.90
11320;DHT22;5715;48.234;14.320;2022-07-29T04:30:17;19.30;99.90
11320;DHT22;5715;48.234;14.320;2022-07-29T04:33:07;19.40;99.90
11320;DHT22;5715;48.234;14.320;2022-07-29T04:35:54;19.60;99.90
11320;DHT22;5715;48.234;14.320;2022-07-29T04:38:42;19.70;99.90
11320;DHT22;5715;48.234;14.320;2022-07-29T04:41:30;19.90;99.90
11320;DHT22;5715;48.234;14.320;2022-07-29T04:44:19;19.90;99.90
11320;DHT22;5715;48.234;14.320;2022-07-29T04:47:14;20.00;99.90
11320;DHT22;5715;48.234;14.320;2022-07-29T04:50:02;20.00;99.90
11320;DHT22;5715;48.234;14.320;2022-07-29T04:52:50;20.00;99.90
11320;DHT22;5715;48.234;14.320;2022-07-29T04:55:38;20.10;99.90
11320;DHT22;5715;48.234;14.320;2022-07-29T04:58:26;20.10;99.90
11320;DHT22;5715;48.234;14.320;2022-07-29T05:01:14;20.00;99.90
11320;DHT22;5715;48.234;14.320;2022-07-29T05:04:02;20.00;99.90
11320;DHT22;5715;48.234;14.320;2022-07-29T05:06:49;19.90;99.90
11320;DHT22;5715;48.234;14.320;2022-07-29T05:09:37;19.80;99.90
11320;DHT22;5715;48.234;14.320;2022-07-29T05:12:25;19.80;99.90
11320;DHT22;5715;48.234;14.320;2022-07-29T05:15:13;19.80;99.90
11320;DHT22;5715;48.234;14.320;2022-07-29T05:18:01;19.90;99.90
11320;DHT22;5715;48.234;14.320;2022-07-29T05:20:49;19.90;99.90
11320;DHT22;5715;48.234;14.320;2022-07-29T05:23:37;20.00;99.90
11320;DHT22;5715;48.234;14.320;2022-07-29T05:26:24;20.00;99.90
11320;DHT22;5715;48.234;14.320;2022-07-29T05:29:12;20.00;99.90
11320;DHT22;5715;48.234;14.320;2022-07-29T05:32:20;20.10;99.90
11320;DHT22;5715;48.234;14.320;2022-07-29T05:35:08;20.10;99.90
11320;DHT22;5715;48.234;14.320;2022-07-29T05:37:56;20.10;99.90
11320;DHT22;5715;48.234;14.320;2022-07-29T05:40:43;20.20;99.90
11320;DHT22;5715;48.234;14.320;2022-07-29T05:43:31;20.30;99.90
11320;DHT22;5715;48.234;14.320;2022-07-29T05:46:19;20.40;99.90
11320;DHT22;5715;48.234;14.320;2022-07-29T05:49:07;20.50;99.90
11320;DHT22;5715;48.234;14.320;2022-07-29T05:51:55;20.50;99.90
11320;DHT22;5715;48.234;14.320;2022-07-29T05:54:42;20.60;99.90
11320;DHT22;5715;48.234;14.320;2022-07-29T05:57:30;20.60;99.90
11320;DHT22;5715;48.234;14.320;2022-07-29T06:00:18;20.70;99.90
11320;DHT22;5715;48.234;14.320;2022-07-29T06:03:06;20.70;99.90
11320;DHT22;5715;48.234;14.320;2022-07-29T06:05:54;20.80;99.90
11320;DHT22;5715;48.234;14.320;2022-07-29T06:08:41;20.80;99.90
11320;DHT22;5715;48.234;14.320;2022-07-29T06:11:29;20.90;99.90
11320;DHT22;5715;48.234;14.320;2022-07-29T06:14:17;20.90;99.90
11320;DHT22;5715;48.234;14.320;2022-07-29T06:17:05;21.00;99.90
11320;DHT22;5715;48.234;14.320;2022-07-29T06:19:53;21.10;99.90
11320;DHT22;5715;48.234;14.320;2022-07-29T06:22:43;21.20;99.90
11320;DHT22;5715;48.234;14.320;2022-07-29T06:25:31;21.30;99.90
11320;DHT22;5715;48.234;14.320;2022-07-29T06:28:24;21.30;99.90
11320;DHT22;5715;48.234;14.320;2022-07-29T06:31:13;21.40;99.90
11320;DHT22;5715;48.234;14.320;2022-07-29T06:34:01;21.50;99.90
11320;DHT22;5715;48.234;14.320;2022-07-29T06:36:49;21.60;99.90
11320;DHT22;5715;48.234;14.320;2022-07-29T06:39:38;21.60;99.90
11320;DHT22;5715;48.234;14.320;2022-07-29T06:42:26;21.70;99.90
11320;DHT22;5715;48.234;14.320;2022-07-29T06:45:13;21.70;99.90
11320;DHT22;5715;48.234;14.320;2022-07-29T06:48:01;21.80;99.90
11320;DHT22;5715;48.234;14.320;2022-07-29T06:50:49;21.90;99.90
11320;DHT22;5715;48.234;14.320;2022-07-29T06:53:37;22.00;99.90
11320;DHT22;5715;48.234;14.320;2022-07-29T06:56:45;22.10;99.90
11320;DHT22;5715;48.234;14.320;2022-07-29T06:59:33;22.10;99.90
11320;DHT22;5715;48.234;14.320;2022-07-29T07:02:22;22.20;99.90
11320;DHT22;5715;48.234;14.320;2022-07-29T07:05:10;22.30;99.90
11320;DHT22;5715;48.234;14.320;2022-07-29T07:07:57;22.30;99.90
11320;DHT22;5715;48.234;14.320;2022-07-29T07:10:45;22.30;99.90
11320;DHT22;5715;48.234;14.320;2022-07-29T07:13:34;22.30;99.90
11320;DHT22;5715;48.234;14.320;2022-07-29T07:16:22;22.20;99.90
11320;DHT22;5715;48.234;14.320;2022-07-29T07:19:10;22.10;99.90
11320;DHT22;5715;48.234;14.320;2022-07-29T07:22:00;21.90;99.90
11320;DHT22;5715;48.234;14.320;2022-07-29T07:24:49;21.80;99.90
11320;DHT22;5715;48.234;14.320;2022-07-29T07:27:39;21.70;99.90
11320;DHT22;5715;48.234;14.320;2022-07-29T07:30:26;21.70;99.90
11320;DHT22;5715;48.234;14.320;2022-07-29T07:33:15;21.70;99.90
11320;DHT22;5715;48.234;14.320;2022-07-29T07:36:02;21.60;99.90
11320;DHT22;5715;48.234;14.320;2022-07-29T07:38:50;21.50;99.90
11320;DHT22;5715;48.234;14.320;2022-07-29T07:41:38;21.50;99.90
11320;DHT22;5715;48.234;14.320;2022-07-29T07:44:26;21.50;99.90
11320;DHT22;5715;48.234;14.320;2022-07-29T07:47:14;21.50;99.90
11320;DHT22;5715;48.234;14.320;2022-07-29T07:50:12;21.50;99.90
11320;DHT22;5715;48.234;14.320;2022-07-29T07:53:05;21.50;99.90
11320;DHT22;5715;48.234;14.320;2022-07-29T07:55:52;21.50;99.90
11320;DHT22;5715;48.234;14.320;2022-07-29T07:58:58;21.60;99.90
11320;DHT22;5715;48.234;14.320;2022-07-29T08:01:45;21.70;99.90
11320;DHT22;5715;48.234;14.320;2022-07-29T08:04:42;21.80;99.90
11320;DHT22;5715;48.234;14.320;2022-07-29T08:07:30;21.90;99.90
11320;DHT22;5715;48.234;14.320;2022-07-29T08:10:19;22.00;99.90
11320;DHT22;5715;48.234;14.320;2022-07-29T08:13:26;22.00;99.90
11320;DHT22;5715;48.234;14.320;2022-07-29T08:16:15;22.10;99.90
11320;DHT22;5715;48.234;14.320;2022-07-29T08:19:03;22.10;99.90
11320;DHT22;5715;48.234;14.320;2022-07-29T08:21:51;22.20;99.90
11320;DHT22;5715;48.234;14.320;2022-07-29T08:24:41;22.20;99.90
11320;DHT22;5715;48.234;14.320;2022-07-29T08:27:34;22.30;99.90
11320;DHT22;5715;48.234;14.320;2022-07-29T08:30:30;22.40;99.90
11320;DHT22;5715;48.234;14.320;2022-07-29T08:33:19;22.60;99.90
11320;DHT22;5715;48.234;14.320;2022-07-29T08:36:07;22.70;99.90
11320;DHT22;5715;48.234;14.320;2022-07-29T08:38:55;22.70;99.90
11320;DHT22;5715;48.234;14.320;2022-07-29T08:41:43;22.80;99.90
11320;DHT22;5715;48.234;14.320;2022-07-29T08:44:44;22.90;99.90
11320;DHT22;5715;48.234;14.320;2022-07-29T08:47:33;23.10;99.90
11320;DHT22;5715;48.234;14.320;2022-07-29T08:50:23;23.10;99.90
11320;DHT22;5715;48.234;14.320;2022-07-29T08:53:12;23.20;99.90
11320;DHT22;5715;48.234;14.320;2022-07-29T08:56:02;23.30;99.90
11320;DHT22;5715;48.234;14.320;2022-07-29T08:58:50;23.30;99.90
11320;DHT22;5715;48.234;14.320;2022-07-29T09:01:39;23.40;99.90
11320;DHT22;5715;48.234;14.320;2022-07-29T09:04:34;23.50;99.90
11320;DHT22;5715;48.234;14.320;2022-07-29T09:07:23;23.40;99.90
11320;DHT22;5715;48.234;14.320;2022-07-29T09:10:20;23.50;99.90
11320;DHT22;5715;48.234;14.320;2022-07-29T09:13:08;23.60;99.90
11320;DHT22;5715;48.234;14.320;2022-07-29T09:15:56;23.60;99.90
11320;DHT22;5715;48.234;14.320;2022-07-29T09:18:45;23.70;99.90
11320;DHT22;5715;48.234;14.320;2022-07-29T09:21:40;23.80;99.90
11320;DHT22;5715;48.234;14.320;2022-07-29T09:24:49;24.10;99.90
11320;DHT22;5715;48.234;14.320;2022-07-29T09:27:37;24.30;99.90
11320;DHT22;5715;48.234;14.320;2022-07-29T09:30:25;24.50;99.90
11320;DHT22;5715;48.234;14.320;2022-07-29T09:33:18;24.70;99.90
11320;DHT22;5715;48.234;14.320;2022-07-29T09:36:08;24.90;99.90
11320;DHT22;5715;48.234;14.320;2022-07-29T09:39:00;25.00;99.90
11320;DHT22;5715;48.234;14.320;2022-07-29T09:41:51;25.20;99.90
11320;DHT22;5715;48.234;14.320;2022-07-29T09:44:47;25.40;99.90
11320;DHT22;5715;48.234;14.320;2022-07-29T09:47:44;25.70;99.90
11320;DHT22;5715;48.234;14.320;2022-07-29T09:50:45;25.80;99.90
11320;DHT22;5715;48.234;14.320;2022-07-29T09:53:37;25.80;99.90
11320;DHT22;5715;48.234;14.320;2022-07-29T09:56:42;25.80;99.90
11320;DHT22;5715;48.234;14.320;2022-07-29T09:59:29;25.80;99.90
11320;DHT22;5715;48.234;14.320;2022-07-29T10:02:18;25.90;99.90
11320;DHT22;5715;48.234;14.320;2022-07-29T10:05:24;25.90;99.90
11320;DHT22;5715;48.234;14.320;2022-07-29T10:08:25;25.90;99.90
11320;DHT22;5715;48.234;14.320;2022-07-29T10:11:18;26.00;99.90
11320;DHT22;5715;48.234;14.320;2022-07-29T10:14:06;26.00;99.90
11320;DHT22;5715;48.234;14.320;2022-07-29T10:16:55;26.10;99.90
11320;DHT22;5715;48.234;14.320;2022-07-29T10:19:42;26.30;99.90
11320;DHT22;5715;48.234;14.320;2022-07-29T10:22:30;26.40;99.90
11320;DHT22;5715;48.234;14.320;2022-07-29T10:25:38;26.10;99.90
11320;DHT22;5715;48.234;14.320;2022-07-29T10:28:32;26.50;99.90
11320;DHT22;5715;48.234;14.320;2022-07-29T10:31:28;26.90;99.90
11320;DHT22;5715;48.234;14.320;2022-07-29T10:34:34;27.10;99.90
11320;DHT22;5715;48.234;14.320;2022-07-29T10:41:34;26.80;99.90
11320;DHT22;5715;48.234;14.320;2022-07-29T10:44:45;26.30;99.90
11320;DHT22;5715;48.234;14.320;2022-07-29T10:47:34;26.50;99.90
11320;DHT22;5715;48.234;14.320;2022-07-29T10:50:22;26.90;99.90
11320;DHT22;5715;48.234;14.320;2022-07-29T10:53:10;27.30;99.90
11320;DHT22;5715;48.234;14.320;2022-07-29T10:56:00;27.50;99.90
11320;DHT22;5715;48.234;14.320;2022-07-29T11:05:29;27.10;99.90
11320;DHT22;5715;48.234;14.320;2022-07-29T11:08:27;27.10;99.90
11320;DHT22;5715;48.234;14.320;2022-07-29T11:14:15;27.60;99.90
11320;DHT22;5715;48.234;14.320;2022-07-29T11:17:05;27.80;99.90
11320;DHT22;5715;48.234;14.320;2022-07-29T11:23:34;28.40;99.90
11320;DHT22;5715;48.234;14.320;2022-07-29T11:26:24;28.30;99.90
11320;DHT22;5715;48.234;14.320;2022-07-29T11:29:21;28.00;99.90
11320;DHT22;5715;48.234;14.320;2022-07-29T11:32:14;28.20;99.90
11320;DHT22;5715;48.234;14.320;2022-07-29T11:35:23;28.30;99.90
11320;DHT22;5715;48.234;14.320;2022-07-29T11:38:26;28.60;99.90
11320;DHT22;5715;48.234;14.320;2022-07-29T11:41:25;28.90;99.90
11320;DHT22;5715;48.234;14.320;2022-07-29T11:44:17;28.30;99.90
11320;DHT22;5715;48.234;14.320;2022-07-29T11:47:06;28.10;99.90
11320;DHT22;5715;48.234;14.320;2022-07-29T11:49:58;28.50;99.90
11320;DHT22;5715;48.234;14.320;2022-07-29T11:52:47;28.80;99.90
11320;DHT22;5715;48.234;14.320;2022-07-29T11:55:38;28.80;99.90
11320;DHT22;5715;48.234;14.320;2022-07-29T11:58:37;28.80;99.90
11320;DHT22;5715;48.234;14.320;2022-07-29T12:01:26;29.00;99.90
11320;DHT22;5715;48.234;14.320;2022-07-29T12:04:14;28.50;99.90
11320;DHT22;5715;48.234;14.320;2022-07-29T12:07:06;28.80;99.90
11320;DHT22;5715;48.234;14.320;2022-07-29T12:09:59;28.90;99.90
11320;DHT22;5715;48.234;14.320;2022-07-29T12:12:51;28.90;99.90
11320;DHT22;5715;48.234;14.320;2022-07-29T12:15:51;29.40;99.90
11320;DHT22;5715;48.234;14.320;2022-07-29T12:18:59;29.70;99.90
11320;DHT22;5715;48.234;14.320;2022-07-29T12:21:52;30.00;99.90
11320;DHT22;5715;48.234;14.320;2022-07-29T12:24:45;30.30;99.90
11320;DHT22;5715;48.234;14.320;2022-07-29T12:27:33;30.30;99.90
11320;DHT22;5715;48.234;14.320;2022-07-29T12:30:41;30.40;99.90
11320;DHT22;5715;48.234;14.320;2022-07-29T12:33:37;29.90;99.90
11320;DHT22;5715;48.234;14.320;2022-07-29T12:36:25;29.50;99.90
11320;DHT22;5715;48.234;14.320;2022-07-29T12:39:14;29.60;99.90
11320;DHT22;5715;48.234;14.320;2022-07-29T12:42:15;29.40;99.90
11320;DHT22;5715;48.234;14.320;2022-07-29T12:45:06;29.50;99.90
11320;DHT22;5715;48.234;14.320;2022-07-29T12:47:55;29.50;99.90
11320;DHT22;5715;48.234;14.320;2022-07-29T12:51:00;29.50;99.90
11320;DHT22;5715;48.234;14.320;2022-07-29T12:54:07;29.70;99.90
11320;DHT22;5715;48.234;14.320;2022-07-29T12:57:00;30.00;99.90
11320;DHT22;5715;48.234;14.320;2022-07-29T13:02:58;30.20;99.90
11320;DHT22;5715;48.234;14.320;2022-07-29T13:05:46;30.20;99.90
11320;DHT22;5715;48.234;14.320;2022-07-29T13:08:35;30.20;99.90
11320;DHT22;5715;48.234;14.320;2022-07-29T13:11:37;30.20;99.90
11320;DHT22;5715;48.234;14.320;2022-07-29T13:17:23;29.90;99.90
11320;DHT22;5715;48.234;14.320;2022-07-29T13:20:11;30.30;99.90
11320;DHT22;5715;48.234;14.320;2022-07-29T13:23:03;30.30;99.90
11320;DHT22;5715;48.234;14.320;2022-07-29T13:25:50;30.30;99.90
11320;DHT22;5715;48.234;14.320;2022-07-29T13:28:40;30.30;99.90
11320;DHT22;5715;48.234;14.320;2022-07-29T13:31:30;30.50;99.90
11320;DHT22;5715;48.234;14.320;2022-07-29T13:34:18;30.60;99.90
11320;DHT22;5715;48.234;14.320;2022-07-29T13:37:08;30.60;99.90
11320;DHT22;5715;48.234;14.320;2022-07-29T13:39:57;30.70;99.90
11320;DHT22;5715;48.234;14.320;2022-07-29T13:42:44;31.00;99.60
11320;DHT22;5715;48.234;14.320;2022-07-29T13:45:32;30.90;98.90
11320;DHT22;5715;48.234;14.320;2022-07-29T13:48:20;30.90;99.90
11320;DHT22;5715;48.234;14.320;2022-07-29T13:51:08;30.70;99.10
11320;DHT22;5715;48.234;14.320;2022-07-29T13:53:57;30.80;99.60
11320;DHT22;5715;48.234;14.320;2022-07-29T13:56:45;31.00;99.30
11320;DHT22;5715;48.234;14.320;2022-07-29T13:59:33;30.90;98.80
11320;DHT22;5715;48.234;14.320;2022-07-29T14:02:22;30.80;99.90
11320;DHT22;5715;48.234;14.320;2022-07-29T14:05:12;30.90;98.80
11320;DHT22;5715;48.234;14.320;2022-07-29T14:07:59;30.80;98.30
11320;DHT22;5715;48.234;14.320;2022-07-29T14:10:47;30.90;98.80
11320;DHT22;5715;48.234;14.320;2022-07-29T14:13:37;31.10;99.00
11320;DHT22;5715;48.234;14.320;2022-07-29T14:16:26;31.10;99.90
11320;DHT22;5715;48.234;14.320;2022-07-29T14:19:13;31.00;98.00
11320;DHT22;5715;48.234;14.320;2022-07-29T14:22:03;31.20;98.50
11320;DHT22;5715;48.234;14.320;2022-07-29T14:24:53;31.40;99.10
11320;DHT22;5715;48.234;14.320;2022-07-29T14:27:42;31.30;98.50
11320;DHT22;5715;48.234;14.320;2022-07-29T14:30:30;31.30;98.70
11320;DHT22;5715;48.234;14.320;2022-07-29T14:33:18;31.30;98.60
11320;DHT22;5715;48.234;14.320;2022-07-29T14:36:06;31.30;98.70
11320;DHT22;5715;48.234;14.320;2022-07-29T14:38:53;31.20;98.20
11320;DHT22;5715;48.234;14.320;2022-07-29T14:41:41;31.20;98.40
11320;DHT22;5715;48.234;14.320;2022-07-29T14:44:32;31.10;98.60
11320;DHT22;5715;48.234;14.320;2022-07-29T14:47:20;31.00;98.90
11320;DHT22;5715;48.234;14.320;2022-07-29T14:50:09;31.00;99.40
11320;DHT22;5715;48.234;14.320;2022-07-29T14:52:58;31.00;99.00
11320;DHT22;5715;48.234;14.320;2022-07-29T14:55:46;31.00;98.60
11320;DHT22;5715;48.234;14.320;2022-07-29T14:58:34;30.80;98.90
11320;DHT22;5715;48.234;14.320;2022-07-29T15:01:24;30.80;99.00
11320;DHT22;5715;48.234;14.320;2022-07-29T15:04:12;30.90;99.00
11320;DHT22;5715;48.234;14.320;2022-07-29T15:06:59;30.80;98.40
11320;DHT22;5715;48.234;14.320;2022-07-29T15:09:47;30.70;98.80
11320;DHT22;5715;48.234;14.320;2022-07-29T15:12:36;30.60;97.80
11320;DHT22;5715;48.234;14.320;2022-07-29T15:15:23;30.50;98.60
11320;DHT22;5715;48.234;14.320;2022-07-29T15:18:11;30.60;98.50
11320;DHT22;5715;48.234;14.320;2022-07-29T15:20:59;30.50;98.00
11320;DHT22;5715;48.234;14.320;2022-07-29T15:23:52;30.50;98.10
11320;DHT22;5715;48.234;14.320;2022-07-29T15:26:51;30.40;98.50
11320;DHT22;5715;48.234;14.320;2022-07-29T15:29:41;30.40;98.90
11320;DHT22;5715;48.234;14.320;2022-07-29T15:32:29;30.60;98.70
11320;DHT22;5715;48.234;14.320;2022-07-29T15:35:24;30.60;98.30
11320;DHT22;5715;48.234;14.320;2022-07-29T15:38:15;30.70;98.60
11320;DHT22;5715;48.234;14.320;2022-07-29T15:41:03;30.80;98.40
11320;DHT22;5715;48.234;14.320;2022-07-29T15:43:51;30.70;98.70
11320;DHT22;5715;48.234;14.320;2022-07-29T15:46:42;30.90;98.80
11320;DHT22;5715;48.234;14.320;2022-07-29T15:49:48;30.80;98.40
11320;DHT22;5715;48.234;14.320;2022-07-29T15:52:36;30.70;98.50
11320;DHT22;5715;48.234;14.320;2022-07-29T15:55:30;30.60;98.40
11320;DHT22;5715;48.234;14.320;2022-07-29T15:58:18;30.60;98.90
11320;DHT22;5715;48.234;14.320;2022-07-29T16:01:05;30.60;98.30
11320;DHT22;5715;48.234;14.320;2022-07-29T16:03:53;30.60;98.00
11320;DHT22;5715;48.234;14.320;2022-07-29T16:06:43;30.60;97.90
11320;DHT22;5715;48.234;14.320;2022-07-29T16:09:32;30.50;98.30
11320;DHT22;5715;48.234;14.320;2022-07-29T16:12:20;30.40;98.80
11320;DHT22;5715;48.234;14.320;2022-07-29T16:15:08;30.40;98.00
11320;DHT22;5715;48.234;14.320;2022-07-29T16:17:57;30.40;98.80
11320;DHT22;5715;48.234;14.320;2022-07-29T16:20:44;30.40;98.80
11320;DHT22;5715;48.234;14.320;2022-07-29T16:23:32;30.40;98.10
11320;DHT22;5715;48.234;14.320;2022-07-29T16:26:19;30.30;99.00
11320;DHT22;5715;48.234;14.320;2022-07-29T16:29:07;30.40;98.50
11320;DHT22;5715;48.234;14.320;2022-07-29T16:31:55;30.40;98.70
11320;DHT22;5715;48.234;14.320;2022-07-29T16:34:43;30.50;99.40
11320;DHT22;5715;48.234;14.320;2022-07-29T16:37:33;30.40;99.20
11320;DHT22;5715;48.234;14.320;2022-07-29T16:40:21;30.40;99.10
11320;DHT22;5715;48.234;14.320;2022-07-29T16:43:09;30.40;99.20
11320;DHT22;5715;48.234;14.320;2022-07-29T16:45:57;30.40;98.80
11320;DHT22;5715;48.234;14.320;2022-07-29T16:48:45;30.30;99.40
11320;DHT22;5715;48.234;14.320;2022-07-29T16:51:34;30.10;99.20
11320;DHT22;5715;48.234;14.320;2022-07-29T16:54:22;30.00;99.50
11320;DHT22;5715;48.234;14.320;2022-07-29T16:57:09;29.90;99.10
11320;DHT22;5715;48.234;14.320;2022-07-29T16:59:58;29.80;99.10
11320;DHT22;5715;48.234;14.320;2022-07-29T17:02:45;29.70;99.00
11320;DHT22;5715;48.234;14.320;2022-07-29T17:05:33;29.60;99.50
11320;DHT22;5715;48.234;14.320;2022-07-29T17:08:40;29.50;98.90
11320;DHT22;5715;48.234;14.320;2022-07-29T17:11:27;29.50;99.00
11320;DHT22;5715;48.234;14.320;2022-07-29T17:14:35;29.60;99.10
11320;DHT22;5715;48.234;14.320;2022-07-29T17:17:23;29.70;98.80
11320;DHT22;5715;48.234;14.320;2022-07-29T17:20:25;29.50;98.90
11320;DHT22;5715;48.234;14.320;2022-07-29T17:23:13;29.30;99.00
11320;DHT22;5715;48.234;14.320;2022-07-29T17:26:01;29.10;99.50
11320;DHT22;5715;48.234;14.320;2022-07-29T17:28:49;28.70;99.80
11320;DHT22;5715;48.234;14.320;2022-07-29T17:31:37;28.40;99.90
11320;DHT22;5715;48.234;14.320;2022-07-29T17:34:25;28.20;99.90
11320;DHT22;5715;48.234;14.320;2022-07-29T17:37:13;28.00;99.90
11320;DHT22;5715;48.234;14.320;2022-07-29T17:40:00;27.80;99.90
11320;DHT22;5715;48.234;14.320;2022-07-29T17:42:48;27.70;99.90
11320;DHT22;5715;48.234;14.320;2022-07-29T17:45:36;27.50;99.90
11320;DHT22;5715;48.234;14.320;2022-07-29T17:48:37;27.40;99.90
11320;DHT22;5715;48.234;14.320;2022-07-29T17:51:25;27.30;99.90
11320;DHT22;5715;48.234;14.320;2022-07-29T17:54:13;27.20;99.90
11320;DHT22;5715;48.234;14.320;2022-07-29T17:57:01;27.10;99.90
11320;DHT22;5715;48.234;14.320;2022-07-29T17:59:48;27.00;99.90
11320;DHT22;5715;48.234;14.320;2022-07-29T18:02:36;26.80;99.90
11320;DHT22;5715;48.234;14.320;2022-07-29T18:05:24;26.60;99.90
11320;DHT22;5715;48.234;14.320;2022-07-29T18:08:24;26.50;99.90
11320;DHT22;5715;48.234;14.320;2022-07-29T18:11:13;26.30;99.90
11320;DHT22;5715;48.234;14.320;2022-07-29T18:14:01;26.20;99.90
11320;DHT22;5715;48.234;14.320;2022-07-29T18:16:48;26.10;99.90
11320;DHT22;5715;48.234;14.320;2022-07-29T18:19:36;26.00;99.90
11320;DHT22;5715;48.234;14.320;2022-07-29T18:22:24;26.00;99.90
11320;DHT22;5715;48.234;14.320;2022-07-29T18:25:12;25.90;99.90